Time;durP1;ratioP1;P1;durP2;ratioP2;P2;SDS_P1;SDS_P2;PMS_P1;PMS_P2;Temp;Humidity;BMP_temperature;BMP_pressure;BME280_temperature;BME280_humidity;BME280_pressure;Samples;Min_cycle;Max_cycle;Signal;HPM_P1;HPM_P2
2021/04/08 00:01:43;;;;;;;3.42;2.47;;;0.40;99.90;;;;;;4742451;30;20051;-78
2021/04/08 00:04:27;;;;;;;5.53;2.78;;;0.40;99.90;;;;;;4757199;30;20052;-80
2021/04/08 00:06:54;;;;;;;4.20;2.58;;;0.40;99.90;;;;;;4742369;30;20048;-79
2021/04/08 00:09:26;;;;;;;3.80;2.55;;;0.40;99.90;;;;;;4742627;30;20079;-79
2021/04/08 00:11:57;;;;;;;4.60;2.45;;;0.40;99.90;;;;;;4756957;30;20138;-79
2021/04/08 00:14:29;;;;;;;6.75;2.70;;;0.40;99.90;;;;;;4742326;30;20055;-79
2021/04/08 00:17:00;;;;;;;3.30;2.40;;;0.40;99.90;;;;;;4743107;30;20052;-78
2021/04/08 00:19:31;;;;;;;4.32;2.42;;;0.50;99.90;;;;;;4742807;30;20043;-79
2021/04/08 00:21:58;;;;;;;6.35;2.63;;;0.50;99.90;;;;;;4742770;30;20124;-79
2021/04/08 00:24:24;;;;;;;3.92;2.40;;;0.50;99.90;;;;;;4757410;30;20478;-78
2021/04/08 00:26:55;;;;;;;4.13;2.63;;;0.50;99.90;;;;;;4743218;30;20054;-80
2021/04/08 00:29:26;;;;;;;3.85;2.55;;;0.50;99.90;;;;;;4773100;30;20044;-78
2021/04/08 00:31:53;;;;;;;4.60;2.67;;;0.50;99.90;;;;;;4756523;30;20051;-78
2021/04/08 00:34:24;;;;;;;3.67;2.15;;;0.50;99.90;;;;;;4743469;30;20051;-79
2021/04/08 00:36:56;;;;;;;5.20;2.33;;;0.50;99.90;;;;;;4742773;30;20142;-79
2021/04/08 00:39:27;;;;;;;4.95;2.67;;;0.50;99.90;;;;;;4742631;30;20097;-78
2021/04/08 00:41:58;;;;;;;2.78;2.20;;;0.50;99.90;;;;;;4757086;30;20055;-78
2021/04/08 00:44:25;;;;;;;3.60;3.08;;;0.60;99.90;;;;;;4756517;30;20056;-78
2021/04/08 00:46:56;;;;;;;2.88;2.10;;;0.60;99.90;;;;;;4743062;30;20135;-79
2021/04/08 00:49:27;;;;;;;2.95;2.03;;;0.60;99.90;;;;;;4742683;30;20052;-78
2021/04/08 00:51:59;;;;;;;10.32;4.07;;;0.60;99.90;;;;;;4742859;30;20168;-78
2021/04/08 00:54:30;;;;;;;7.53;2.45;;;0.70;99.90;;;;;;4742961;30;20520;-78
2021/04/08 00:56:57;;;;;;;4.50;2.33;;;0.70;99.90;;;;;;4757436;30;20079;-78
2021/04/08 00:59:29;;;;;;;4.85;2.58;;;0.70;99.90;;;;;;4757469;30;20052;-79
2021/04/08 01:02:01;;;;;;;5.60;2.38;;;0.70;99.90;;;;;;4756423;30;20048;-78
2021/04/08 01:04:32;;;;;;;3.75;2.10;;;0.70;99.90;;;;;;4742082;30;20047;-79
2021/04/08 01:06:59;;;;;;;5.22;2.40;;;0.60;99.90;;;;;;4742121;30;20115;-78
2021/04/08 01:09:30;;;;;;;3.80;1.85;;;0.70;99.90;;;;;;4755971;30;20513;-80
2021/04/08 01:12:02;;;;;;;2.90;2.20;;;0.70;99.90;;;;;;4741991;30;20055;-79
2021/04/08 01:14:33;;;;;;;4.32;2.25;;;0.70;99.90;;;;;;4756626;30;20113;-79
2021/04/08 01:17:06;;;;;;;4.97;2.47;;;0.70;99.90;;;;;;4741646;30;20066;-78
2021/04/08 01:19:49;;;;;;;5.07;2.15;;;0.70;99.90;;;;;;4755934;30;20059;-78
2021/04/08 01:22:39;;;;;;;3.97;2.40;;;0.80;99.90;;;;;;4757075;30;20056;-78
2021/04/08 01:25:21;;;;;;;5.10;2.28;;;0.80;99.90;;;;;;4756300;30;20066;-78
2021/04/08 01:28:15;;;;;;;3.58;2.28;;;0.90;99.90;;;;;;4756615;30;20056;-78
2021/04/08 01:30:51;;;;;;;2.75;1.60;;;0.90;99.90;;;;;;4758382;30;20051;-79
2021/04/08 01:33:19;;;;;;;4.28;2.00;;;0.90;99.90;;;;;;4757622;30;20051;-79
2021/04/08 01:35:48;;;;;;;4.97;2.03;;;0.90;99.90;;;;;;4753772;30;20079;-79
2021/04/08 01:38:22;;;;;;;2.78;1.92;;;0.90;99.90;;;;;;4755729;30;20512;-79
2021/04/08 01:40:54;;;;;;;6.45;2.42;;;0.90;99.90;;;;;;4749366;30;20062;-80
2021/04/08 01:43:30;;;;;;;3.53;2.30;;;0.90;99.90;;;;;;4752793;30;20056;-80
2021/04/08 01:45:59;;;;;;;4.68;1.98;;;0.90;99.90;;;;;;4766488;30;20051;-79
2021/04/08 01:48:28;;;;;;;4.32;2.08;;;0.90;99.90;;;;;;4759219;30;20093;-78
2021/04/08 01:51:01;;;;;;;5.85;2.42;;;0.90;99.90;;;;;;4741976;30;20054;-78
2021/04/08 01:53:37;;;;;;;5.15;1.98;;;0.90;99.90;;;;;;4740817;30;20047;-80
2021/04/08 01:56:04;;;;;;;4.88;2.50;;;0.90;99.90;;;;;;4740349;30;20547;-78
2021/04/08 01:58:31;;;;;;;3.08;2.05;;;0.90;99.90;;;;;;4754777;30;20149;-79
2021/04/08 02:01:04;;;;;;;4.90;2.35;;;1.00;99.90;;;;;;4740948;30;20048;-78
2021/04/08 02:03:36;;;;;;;5.70;2.40;;;1.10;99.90;;;;;;4754672;30;20093;-79
2021/04/08 02:06:12;;;;;;;5.22;2.13;;;1.00;99.90;;;;;;4741531;30;20048;-79
2021/04/08 02:08:46;;;;;;;2.58;1.83;;;1.00;99.90;;;;;;4755360;30;20055;-79
2021/04/08 02:11:19;;;;;;;4.03;2.65;;;1.00;99.90;;;;;;4755173;30;20065;-79
2021/04/08 02:13:52;;;;;;;4.85;3.00;;;1.00;99.90;;;;;;4741251;30;20108;-79
2021/04/08 02:16:23;;;;;;;2.73;1.87;;;1.10;99.90;;;;;;4755965;30;20139;-78
2021/04/08 02:18:58;;;;;;;5.75;2.97;;;1.00;99.90;;;;;;4740202;30;20048;-78
2021/04/08 02:21:29;;;;;;;7.20;2.75;;;1.00;99.90;;;;;;4740559;30;20058;-78
2021/04/08 02:24:02;;;;;;;3.50;2.20;;;1.00;99.90;;;;;;4740270;30;20074;-78
2021/04/08 02:26:34;;;;;;;8.13;3.10;;;0.90;99.90;;;;;;4740603;30;20061;-78
2021/04/08 02:29:06;;;;;;;8.40;2.97;;;0.90;99.90;;;;;;4740184;30;20500;-78
2021/04/08 02:31:36;;;;;;;4.88;3.38;;;0.80;99.90;;;;;;4739807;30;20087;-78
2021/04/08 02:34:10;;;;;;;4.85;3.40;;;0.80;99.90;;;;;;4740674;30;20059;-78
2021/04/08 02:36:37;;;;;;;7.30;3.67;;;0.70;99.90;;;;;;4754620;30;20097;-79
2021/04/08 02:39:10;;;;;;;4.77;3.50;;;0.70;99.90;;;;;;4740077;30;20052;-79
2021/04/08 02:41:44;;;;;;;9.53;3.87;;;0.70;99.90;;;;;;4754532;30;20102;-79
2021/04/08 02:44:16;;;;;;;7.00;3.80;;;0.70;99.90;;;;;;4740313;30;20363;-80
2021/04/08 02:46:48;;;;;;;6.70;3.70;;;0.70;99.90;;;;;;4754606;30;20071;-78
2021/04/08 02:49:19;;;;;;;6.75;3.47;;;0.60;99.90;;;;;;4739801;30;20052;-78
2021/04/08 02:52:02;;;;;;;5.40;3.58;;;0.60;99.90;;;;;;4754483;30;20094;-79
2021/04/08 02:54:54;;;;;;;8.93;3.33;;;0.60;99.90;;;;;;4755864;30;20158;-78
2021/04/08 02:57:37;;;;;;;5.30;2.60;;;0.60;99.90;;;;;;4740523;30;20511;-78
2021/04/08 03:00:10;;;;;;;8.05;3.38;;;0.60;99.90;;;;;;4739989;30;20051;-78
2021/04/08 03:02:45;;;;;;;4.87;2.90;;;0.60;99.90;;;;;;4740397;30;20063;-78
2021/04/08 03:05:17;;;;;;;3.55;2.60;;;0.60;99.90;;;;;;4740793;30;20408;-79
2021/04/08 03:07:48;;;;;;;3.47;2.10;;;0.70;99.90;;;;;;4739682;30;20060;-78
2021/04/08 03:10:20;;;;;;;5.97;2.85;;;0.70;99.90;;;;;;4740569;30;20120;-79
2021/04/08 03:12:54;;;;;;;3.88;2.42;;;0.70;99.90;;;;;;4740746;30;20518;-78
2021/04/08 03:15:31;;;;;;;3.83;2.88;;;0.70;99.90;;;;;;4740144;30;20243;-79
2021/04/08 03:17:59;;;;;;;5.60;2.85;;;0.70;99.90;;;;;;4753879;30;20326;-78
2021/04/08 03:20:27;;;;;;;5.15;3.15;;;0.80;99.90;;;;;;4739914;30;20543;-78
2021/04/08 03:23:02;;;;;;;4.82;2.88;;;0.80;99.90;;;;;;4754424;30;20406;-79
2021/04/08 03:25:36;;;;;;;5.65;3.33;;;0.70;99.90;;;;;;4740643;30;20051;-79
2021/04/08 03:28:12;;;;;;;8.45;3.22;;;0.50;99.90;;;;;;4740696;30;20048;-79
2021/04/08 03:30:40;;;;;;;7.70;3.25;;;0.40;99.90;;;;;;4739186;30;20048;-77
2021/04/08 03:33:16;;;;;;;6.55;2.88;;;0.30;99.90;;;;;;4751748;30;20135;-77
2021/04/08 03:35:49;;;;;;;6.15;3.30;;;0.30;99.90;;;;;;4737069;30;20052;-77
2021/04/08 03:38:16;;;;;;;5.75;2.80;;;0.30;99.90;;;;;;4750287;30;20052;-77
2021/04/08 03:40:48;;;;;;;7.72;3.20;;;0.30;99.90;;;;;;4751008;30;20075;-77
2021/04/08 03:43:20;;;;;;;4.07;2.53;;;0.40;99.90;;;;;;4751038;30;20061;-77
2021/04/08 03:45:51;;;;;;;4.43;2.70;;;0.50;99.90;;;;;;4750690;30;20058;-77
2021/04/08 03:48:19;;;;;;;5.85;3.20;;;0.50;99.90;;;;;;4750853;30;20044;-77
2021/04/08 03:50:50;;;;;;;5.07;2.78;;;0.60;99.90;;;;;;4740236;30;20044;-78
2021/04/08 03:53:22;;;;;;;4.40;2.97;;;0.60;99.90;;;;;;4755094;30;20047;-78
2021/04/08 03:55:57;;;;;;;7.75;2.50;;;0.60;99.90;;;;;;4740085;30;20056;-78
2021/04/08 03:58:29;;;;;;;7.75;3.15;;;0.70;99.90;;;;;;4753843;30;20051;-78
2021/04/08 04:01:01;;;;;;;6.68;2.80;;;0.70;99.90;;;;;;4754205;30;20076;-78
2021/04/08 04:03:33;;;;;;;3.95;2.65;;;0.70;99.90;;;;;;4755102;30;20058;-78
2021/04/08 04:06:08;;;;;;;6.68;3.38;;;0.70;99.90;;;;;;4754245;30;20058;-78
2021/04/08 04:08:40;;;;;;;5.10;3.42;;;0.70;99.90;;;;;;4739698;30;20083;-77
2021/04/08 04:11:12;;;;;;;6.22;3.45;;;0.70;99.90;;;;;;4740254;30;20056;-78
2021/04/08 04:13:48;;;;;;;7.70;3.53;;;0.70;99.90;;;;;;4740331;30;20142;-78
2021/04/08 04:16:19;;;;;;;7.15;3.20;;;0.70;99.90;;;;;;4754973;30;20070;-77
2021/04/08 04:18:50;;;;;;;7.65;3.30;;;0.70;99.90;;;;;;4754279;30;20048;-77
2021/04/08 04:21:17;;;;;;;4.88;3.30;;;0.70;99.90;;;;;;4754080;30;20044;-78
2021/04/08 04:23:48;;;;;;;6.63;3.13;;;0.70;99.90;;;;;;4753743;30;20048;-78
2021/04/08 04:26:19;;;;;;;4.90;3.15;;;0.80;99.90;;;;;;4739856;30;20627;-78
2021/04/08 04:28:51;;;;;;;4.40;3.05;;;0.70;99.90;;;;;;4757552;30;20043;-78
2021/04/08 04:31:17;;;;;;;4.85;2.45;;;0.70;99.90;;;;;;4762378;30;20048;-78
2021/04/08 04:33:49;;;;;;;8.43;2.65;;;0.70;99.90;;;;;;4773938;30;20047;-78
2021/04/08 04:36:20;;;;;;;8.55;3.85;;;0.70;99.90;;;;;;4754193;30;20116;-77
2021/04/08 04:38:51;;;;;;;4.05;2.78;;;0.70;99.90;;;;;;4752733;30;20107;-79
2021/04/08 04:41:23;;;;;;;5.88;3.38;;;0.70;99.90;;;;;;4751340;30;20465;-78
2021/04/08 04:43:54;;;;;;;7.82;3.63;;;0.70;99.90;;;;;;4751884;30;20115;-79
2021/04/08 04:46:25;;;;;;;6.68;3.70;;;0.70;99.90;;;;;;4744639;30;20105;-78
2021/04/08 04:48:57;;;;;;;6.72;3.75;;;0.70;99.90;;;;;;4753711;30;20056;-78
2021/04/08 04:51:28;;;;;;;6.43;3.75;;;0.70;99.90;;;;;;4739741;30;20143;-78
2021/04/08 04:53:59;;;;;;;12.20;5.13;;;0.70;99.90;;;;;;4769423;30;20047;-78
2021/04/08 04:56:30;;;;;;;8.38;4.80;;;0.70;99.90;;;;;;4753344;30;20044;-77
2021/04/08 04:58:56;;;;;;;9.48;4.82;;;0.70;99.90;;;;;;4768730;30;20142;-78
2021/04/08 05:01:28;;;;;;;6.22;4.18;;;0.70;99.90;;;;;;4753246;30;20048;-78
2021/04/08 05:03:59;;;;;;;7.53;5.05;;;0.70;99.90;;;;;;4753063;30;20056;-78
2021/04/08 05:06:30;;;;;;;6.55;4.65;;;0.70;99.90;;;;;;4769258;30;20566;-78
2021/04/08 05:09:02;;;;;;;6.47;4.70;;;0.70;99.90;;;;;;4738423;30;20058;-77
2021/04/08 05:11:34;;;;;;;9.80;4.43;;;0.70;99.90;;;;;;4752901;30;20058;-78
2021/04/08 05:14:05;;;;;;;7.07;4.50;;;0.70;99.90;;;;;;4738692;30;20143;-77
2021/04/08 05:16:36;;;;;;;9.35;5.05;;;0.70;99.90;;;;;;4738860;30;20345;-78
2021/04/08 05:19:08;;;;;;;7.53;4.95;;;0.70;99.90;;;;;;4738159;30;20056;-78
2021/04/08 05:21:39;;;;;;;8.20;4.95;;;0.70;99.90;;;;;;4738361;30;20055;-77
2021/04/08 05:24:10;;;;;;;8.20;5.10;;;0.60;99.90;;;;;;4752483;30;20495;-77
2021/04/08 05:26:42;;;;;;;8.32;5.53;;;0.70;99.90;;;;;;4768668;30;20123;-77
2021/04/08 05:29:13;;;;;;;7.70;4.78;;;0.70;99.90;;;;;;4752298;30;20058;-78
2021/04/08 05:31:44;;;;;;;6.10;4.70;;;0.70;99.90;;;;;;4738612;30;20146;-78
2021/04/08 05:34:15;;;;;;;10.93;5.25;;;0.70;99.90;;;;;;4738186;30;20499;-77
2021/04/08 05:36:47;;;;;;;9.48;5.43;;;0.70;99.90;;;;;;4753353;30;20527;-78
2021/04/08 05:39:18;;;;;;;10.20;5.25;;;0.70;99.90;;;;;;4737966;30;20520;-78
2021/04/08 05:41:49;;;;;;;10.75;4.47;;;0.80;99.90;;;;;;4738307;30;20052;-77
2021/04/08 05:44:21;;;;;;;8.32;4.88;;;0.70;99.90;;;;;;4768190;30;20070;-78
2021/04/08 05:46:52;;;;;;;7.82;4.65;;;0.80;99.90;;;;;;4768212;30;20054;-77
2021/04/08 05:49:23;;;;;;;9.15;5.13;;;0.80;99.90;;;;;;4751821;30;20124;-77
2021/04/08 05:51:54;;;;;;;8.07;4.65;;;0.80;99.90;;;;;;4769650;30;20530;-78
2021/04/08 05:54:26;;;;;;;6.00;4.63;;;0.90;99.90;;;;;;4746238;30;20054;-77
2021/04/08 05:56:57;;;;;;;7.18;4.50;;;0.80;99.90;;;;;;4742478;30;20132;-78
2021/04/08 05:59:29;;;;;;;8.68;4.43;;;0.90;99.90;;;;;;4764957;30;20051;-78
2021/04/08 06:02:00;;;;;;;7.35;4.45;;;0.90;99.90;;;;;;4757012;30;20139;-78
2021/04/08 06:04:31;;;;;;;5.70;4.32;;;0.90;99.90;;;;;;4746239;30;20134;-78
2021/04/08 06:06:57;;;;;;;9.50;4.30;;;0.90;99.90;;;;;;4727367;30;20079;-78
2021/04/08 06:09:29;;;;;;;8.55;4.78;;;0.90;99.90;;;;;;4732348;30;20048;-77
2021/04/08 06:12:03;;;;;;;6.97;3.65;;;0.90;99.90;;;;;;4744456;30;20093;-77
2021/04/08 06:14:31;;;;;;;8.85;4.32;;;1.00;99.90;;;;;;4752756;30;20047;-77
2021/04/08 06:17:03;;;;;;;5.60;3.95;;;1.00;99.90;;;;;;4742408;30;20709;-77
2021/04/08 06:19:36;;;;;;;7.07;3.55;;;1.00;99.90;;;;;;4753664;30;20093;-78
2021/04/08 06:22:08;;;;;;;7.97;3.72;;;1.10;99.90;;;;;;4751513;30;20147;-77
2021/04/08 06:24:39;;;;;;;5.63;3.92;;;1.10;99.90;;;;;;4754445;30;20500;-78
2021/04/08 06:27:11;;;;;;;7.35;3.92;;;1.20;99.90;;;;;;4770766;30;20268;-77
2021/04/08 06:29:42;;;;;;;7.88;4.00;;;1.20;99.90;;;;;;4755141;30;20130;-77
2021/04/08 06:32:13;;;;;;;7.57;3.95;;;1.20;99.90;;;;;;4766718;30;20043;-78
2021/04/08 06:34:44;;;;;;;8.60;4.43;;;1.30;99.90;;;;;;4740929;30;20067;-79
2021/04/08 06:37:15;;;;;;;7.22;4.75;;;1.30;99.90;;;;;;4752132;30;20058;-78
2021/04/08 06:39:48;;;;;;;6.05;4.45;;;1.30;99.90;;;;;;4766774;30;20054;-77
2021/04/08 06:42:18;;;;;;;6.43;4.00;;;1.30;99.90;;;;;;4751722;30;20055;-77
2021/04/08 06:44:51;;;;;;;8.20;4.75;;;1.30;99.90;;;;;;4752093;30;20054;-78
2021/04/08 06:47:32;;;;;;;6.15;4.43;;;1.40;99.90;;;;;;4739196;30;20144;-77
2021/04/08 06:50:04;;;;;;;8.23;4.82;;;1.40;99.90;;;;;;4756042;30;20350;-77
2021/04/08 06:52:37;;;;;;;6.53;4.35;;;1.40;99.90;;;;;;4753054;30;20139;-78
2021/04/08 06:55:09;;;;;;;6.93;4.70;;;1.40;99.90;;;;;;4752758;30;20048;-77
2021/04/08 06:57:42;;;;;;;6.93;4.05;;;1.40;99.90;;;;;;4753229;30;20086;-79
2021/04/08 07:00:16;;;;;;;7.18;4.22;;;1.50;99.90;;;;;;4754804;30;20052;-78
2021/04/08 07:02:48;;;;;;;;;;;1.50;99.90;;;;;;4756124;30;20052;-80
2021/04/08 07:05:20;;;;;;;7.25;4.88;;;1.50;99.90;;;;;;4755093;30;19947;-78
2021/04/08 07:07:52;;;;;;;7.80;3.83;;;1.60;99.90;;;;;;4744820;30;20064;-79
2021/04/08 07:10:23;;;;;;;8.25;4.88;;;1.60;99.90;;;;;;4772825;30;20051;-80
2021/04/08 07:12:54;;;;;;;8.10;5.55;;;1.70;99.90;;;;;;4745359;30;20470;-78
2021/04/08 07:15:26;;;;;;;9.00;4.72;;;1.70;99.90;;;;;;4745618;30;20523;-80
2021/04/08 07:17:58;;;;;;;8.63;4.95;;;1.70;99.90;;;;;;4763895;30;20382;-79
2021/04/08 07:20:25;;;;;;;11.07;4.90;;;1.70;99.90;;;;;;4761141;30;20507;-78
2021/04/08 07:23:07;;;;;;;8.18;4.97;;;1.80;99.90;;;;;;4761194;30;20060;-78
2021/04/08 07:26:01;;;;;;;13.27;6.13;;;1.80;99.90;;;;;;4756540;30;20048;-78
2021/04/08 07:28:34;;;;;;;8.07;4.53;;;1.90;99.90;;;;;;4756286;30;20075;-79
2021/04/08 07:31:25;;;;;;;7.47;4.78;;;1.90;99.90;;;;;;4781712;30;20035;-79
2021/04/08 07:33:58;;;;;;;6.97;4.63;;;1.90;99.90;;;;;;4772008;30;20064;-80
2021/04/08 07:36:29;;;;;;;11.88;4.15;;;1.90;99.90;;;;;;4780049;30;20056;-80
2021/04/08 07:38:57;;;;;;;8.88;4.80;;;1.90;99.90;;;;;;4772546;30;20117;-80
2021/04/08 07:41:36;;;;;;;6.68;4.35;;;2.00;99.90;;;;;;4771292;30;20054;-78
2021/04/08 07:44:09;;;;;;;9.65;5.15;;;1.90;99.90;;;;;;4768178;30;20098;-77
2021/04/08 07:46:45;;;;;;;6.13;4.00;;;1.90;99.90;;;;;;4757901;30;20075;-78
2021/04/08 07:49:33;;;;;;;8.00;4.55;;;2.00;99.90;;;;;;4763982;30;20127;-78
2021/04/08 07:52:20;;;;;;;5.63;3.70;;;2.10;99.90;;;;;;4743852;30;20058;-78
2021/04/08 07:54:59;;;;;;;9.07;3.90;;;2.00;99.90;;;;;;4743699;30;20052;-78
2021/04/08 07:57:32;;;;;;;5.78;4.30;;;2.00;99.90;;;;;;4743900;30;20431;-77
2021/04/08 08:00:25;;;;;;;7.20;3.57;;;2.10;99.90;;;;;;4743746;30;20138;-78
2021/04/08 08:02:59;;;;;;;5.45;3.72;;;2.20;99.90;;;;;;4742749;30;20308;-79
2021/04/08 08:05:35;;;;;;;8.27;3.55;;;2.20;99.90;;;;;;4756611;30;20044;-79
2021/04/08 08:08:16;;;;;;;9.32;4.60;;;2.30;99.90;;;;;;4757222;30;20044;-78
2021/04/08 08:11:01;;;;;;;5.93;4.03;;;2.30;99.90;;;;;;4748335;30;20071;-79
2021/04/08 08:13:36;;;;;;;7.18;4.28;;;2.30;99.90;;;;;;4746683;30;20058;-77
2021/04/08 08:16:16;;;;;;;8.07;4.07;;;2.40;99.90;;;;;;4743255;30;20055;-78
2021/04/08 08:18:49;;;;;;;5.75;3.85;;;2.50;99.90;;;;;;4740641;30;20142;-78
2021/04/08 08:21:28;;;;;;;6.68;4.55;;;2.60;99.90;;;;;;4757533;30;20072;-77
2021/04/08 08:23:59;;;;;;;6.47;4.35;;;2.60;99.90;;;;;;4742849;30;20055;-78
2021/04/08 08:26:45;;;;;;;6.53;3.80;;;2.70;99.90;;;;;;4755587;30;20635;-78
2021/04/08 08:29:13;;;;;;;8.30;3.80;;;2.60;99.90;;;;;;4753357;30;20062;-77
2021/04/08 08:31:49;;;;;;;8.13;4.75;;;2.70;99.90;;;;;;4756734;30;20051;-78
2021/04/08 08:34:26;;;;;;;5.97;3.65;;;2.70;99.90;;;;;;4772251;30;20147;-78
2021/04/08 08:36:59;;;;;;;7.43;3.85;;;2.70;99.90;;;;;;4757272;30;20051;-78
2021/04/08 08:39:33;;;;;;;7.93;4.43;;;2.70;99.90;;;;;;4767226;30;20052;-78
2021/04/08 08:42:08;;;;;;;5.28;3.33;;;2.80;99.90;;;;;;4744573;30;20043;-78
2021/04/08 08:44:41;;;;;;;6.45;3.80;;;2.80;99.90;;;;;;4756025;30;20066;-78
2021/04/08 08:47:34;;;;;;;5.22;3.33;;;2.80;99.90;;;;;;4769605;30;20074;-78
2021/04/08 08:50:12;;;;;;;11.05;4.13;;;2.80;99.90;;;;;;4737895;30;20102;-80
2021/04/08 08:52:49;;;;;;;6.97;3.45;;;2.90;99.90;;;;;;4723964;30;20073;-78
2021/04/08 08:55:18;;;;;;;7.50;4.03;;;2.90;99.90;;;;;;4750371;30;20083;-78
2021/04/08 08:57:52;;;;;;;4.85;3.75;;;2.90;99.90;;;;;;4754696;30;20048;-78
2021/04/08 09:00:27;;;;;;;8.75;4.15;;;2.90;99.90;;;;;;4772274;30;20039;-80
2021/04/08 09:03:00;;;;;;;17.08;7.13;;;3.00;99.90;;;;;;4775856;30;20051;-78
2021/04/08 09:05:36;;;;;;;5.43;3.70;;;3.00;99.90;;;;;;4748055;30;20113;-79
2021/04/08 09:08:12;;;;;;;6.35;4.55;;;3.10;99.90;;;;;;4756601;30;20108;-78
2021/04/08 09:10:44;;;;;;;7.63;4.05;;;3.20;99.90;;;;;;4773170;30;20067;-78
2021/04/08 09:13:18;;;;;;;5.03;3.40;;;3.30;99.90;;;;;;4772676;30;20401;-79
2021/04/08 09:15:44;;;;;;;4.00;3.15;;;3.40;99.90;;;;;;4742739;30;20123;-78
2021/04/08 09:18:20;;;;;;;6.32;3.15;;;3.30;99.90;;;;;;4752797;30;20059;-78
2021/04/08 09:20:54;;;;;;;11.82;5.03;;;3.30;99.90;;;;;;4767305;30;20528;-78
2021/04/08 09:23:26;;;;;;;4.70;2.75;;;3.30;99.90;;;;;;4774538;30;20131;-78
2021/04/08 09:26:02;;;;;;;8.73;4.28;;;3.20;99.90;;;;;;4775883;30;20051;-78
2021/04/08 09:28:40;;;;;;;6.38;4.22;;;3.20;99.90;;;;;;4770761;30;20138;-78
2021/04/08 09:31:24;;;;;;;5.70;4.07;;;3.40;99.90;;;;;;4761072;30;20571;-78
2021/04/08 09:33:57;;;;;;;9.85;3.45;;;3.50;99.90;;;;;;4732742;30;20523;-78
2021/04/08 09:36:40;;;;;;;3.78;2.80;;;3.50;99.90;;;;;;4750720;30;20364;-78
2021/04/08 09:39:06;;;;;;;4.85;3.22;;;3.60;99.90;;;;;;4756727;30;20146;-78
2021/04/08 09:41:43;;;;;;;4.15;3.15;;;3.60;99.90;;;;;;4742036;30;20118;-78
2021/04/08 09:44:11;;;;;;;7.40;3.53;;;3.60;99.90;;;;;;4762501;30;20130;-79
2021/04/08 09:47:03;;;;;;;5.60;3.67;;;3.70;99.90;;;;;;4753150;30;20063;-78
2021/04/08 09:49:45;;;;;;;4.95;3.20;;;3.80;99.90;;;;;;4770243;30;20088;-78
2021/04/08 09:52:17;;;;;;;4.75;2.92;;;3.80;99.90;;;;;;4753674;30;20110;-78
2021/04/08 09:54:56;;;;;;;7.15;3.28;;;3.80;99.90;;;;;;4738961;30;20056;-78
2021/04/08 09:57:37;;;;;;;11.82;5.05;;;3.80;99.90;;;;;;4763834;30;20043;-78
2021/04/08 10:00:16;;;;;;;6.82;3.22;;;3.80;99.90;;;;;;4763099;30;20051;-78
2021/04/08 10:03:06;;;;;;;7.95;3.60;;;3.80;99.90;;;;;;4769392;30;20067;-79
2021/04/08 10:05:40;;;;;;;7.10;2.90;;;3.90;99.90;;;;;;4755232;30;20051;-78
2021/04/08 10:08:09;;;;;;;4.85;3.25;;;4.00;99.90;;;;;;4758007;30;20531;-80
2021/04/08 10:10:43;;;;;;;3.75;2.53;;;4.00;99.90;;;;;;4755894;30;20073;-79
2021/04/08 10:13:17;;;;;;;6.55;2.53;;;4.00;99.90;;;;;;4758558;30;20062;-78
2021/04/08 10:15:52;;;;;;;5.32;2.80;;;4.00;99.90;;;;;;4744554;30;20512;-79
2021/04/08 10:18:26;;;;;;;5.50;3.08;;;4.00;99.90;;;;;;4755465;30;20095;-80
2021/04/08 10:21:01;;;;;;;5.13;2.60;;;4.00;99.90;;;;;;4766631;30;20051;-79
2021/04/08 10:23:38;;;;;;;4.20;2.72;;;4.00;99.70;;;;;;4776429;30;20523;-78
2021/04/08 10:26:14;;;;;;;5.43;2.83;;;4.00;97.40;;;;;;4775068;30;20079;-78
2021/04/08 10:28:45;;;;;;;3.75;2.78;;;4.30;97.30;;;;;;4776622;30;20201;-80
2021/04/08 10:31:28;;;;;;;6.15;3.05;;;4.50;99.00;;;;;;4777367;30;20047;-78
2021/04/08 10:34:05;;;;;;;6.70;2.38;;;5.00;99.90;;;;;;4774760;30;20110;-79
2021/04/08 10:36:55;;;;;;;3.47;2.60;;;5.40;97.40;;;;;;4768914;30;20051;-79
2021/04/08 10:39:55;;;;;;;3.78;2.38;;;5.50;96.40;;;;;;4761431;30;20058;-78
2021/04/08 10:42:28;;;;;;;3.53;2.60;;;5.40;93.00;;;;;;4752018;30;20055;-79
2021/04/08 10:44:58;;;;;;;6.15;3.75;;;5.30;94.20;;;;;;4754578;30;20225;-77
2021/04/08 10:47:34;;;;;;;11.05;3.95;;;5.20;98.20;;;;;;4760712;30;20047;-78
2021/04/08 10:50:06;;;;;;;5.25;3.38;;;5.10;99.60;;;;;;4745321;30;20148;-79
2021/04/08 10:52:39;;;;;;;6.40;3.42;;;5.10;99.90;;;;;;4756373;30;20055;-78
2021/04/08 10:55:15;;;;;;;4.15;3.38;;;5.10;99.90;;;;;;4742262;30;20626;-78
2021/04/08 10:57:46;;;;;;;7.32;3.70;;;5.20;99.90;;;;;;4760665;29;20054;-78
2021/04/08 11:00:14;;;;;;;7.40;3.92;;;5.30;99.90;;;;;;4750405;30;20055;-79
2021/04/08 11:02:48;;;;;;;5.38;4.03;;;5.40;99.70;;;;;;4759549;30;20055;-78
2021/04/08 11:05:25;;;;;;;6.68;3.78;;;5.50;99.50;;;;;;4760445;30;20051;-78
2021/04/08 11:07:58;;;;;;;8.90;4.40;;;5.60;99.90;;;;;;4759521;30;20047;-78
2021/04/08 11:10:31;;;;;;;13.00;3.80;;;5.40;99.30;;;;;;4761063;30;20043;-78
2021/04/08 11:13:05;;;;;;;8.38;4.30;;;5.40;98.50;;;;;;4759711;30;20142;-79
2021/04/08 11:15:39;;;;;;;6.43;3.90;;;5.30;98.70;;;;;;4759644;30;20058;-79
2021/04/08 11:18:14;;;;;;;5.18;4.03;;;5.40;98.40;;;;;;4759557;30;20062;-78
2021/04/08 11:20:46;;;;;;;6.28;4.60;;;5.30;98.30;;;;;;4760067;30;20052;-78
2021/04/08 11:23:20;;;;;;;7.53;5.55;;;5.40;98.50;;;;;;4759403;30;20146;-78
2021/04/08 11:26:05;;;;;;;8.75;5.63;;;5.40;99.50;;;;;;4760608;30;20044;-78
2021/04/08 11:28:41;;;;;;;5.82;4.15;;;5.50;98.40;;;;;;4755210;30;20047;-78
2021/04/08 11:31:21;;;;;;;8.93;3.50;;;5.50;96.90;;;;;;4768022;30;20064;-78
2021/04/08 11:34:02;;;;;;;5.93;3.83;;;5.60;97.40;;;;;;4761419;30;20108;-80
2021/04/08 11:36:33;;;;;;;6.50;4.63;;;5.50;95.90;;;;;;4759166;30;20048;-79
2021/04/08 11:39:11;;;;;;;7.28;4.15;;;5.50;95.90;;;;;;4761474;30;20121;-78
2021/04/08 11:41:42;;;;;;;5.20;3.63;;;5.50;94.70;;;;;;4780280;30;20510;-78
2021/04/08 11:44:26;;;;;;;7.05;3.75;;;5.40;95.70;;;;;;4770199;30;20567;-78
2021/04/08 11:46:53;;;;;;;7.07;4.18;;;5.40;95.70;;;;;;4758914;30;20048;-78
2021/04/08 11:49:25;;;;;;;6.03;4.20;;;5.30;95.00;;;;;;4775371;30;20048;-78
2021/04/08 11:52:08;;;;;;;6.32;5.00;;;5.20;97.10;;;;;;4747255;30;20138;-78
2021/04/08 11:54:59;;;;;;;7.25;4.72;;;5.20;97.30;;;;;;4744262;30;20048;-78
2021/04/08 11:57:31;;;;;;;6.63;3.88;;;5.30;98.20;;;;;;4759654;30;20454;-79
2021/04/08 12:00:07;;;;;;;6.65;4.47;;;5.40;97.60;;;;;;4747200;30;20052;-80
2021/04/08 12:02:38;;;;;;;7.00;5.25;;;5.60;96.00;;;;;;4746551;30;20086;-80
2021/04/08 12:05:12;;;;;;;3.97;3.33;;;5.90;96.10;;;;;;4746729;30;20094;-78
2021/04/08 12:07:46;;;;;;;4.30;3.15;;;6.10;92.70;;;;;;4745187;30;20577;-82
2021/04/08 12:10:32;;;;;;;6.35;3.75;;;6.40;92.80;;;;;;4770841;30;20146;-78
2021/04/08 12:13:11;;;;;;;4.47;3.60;;;6.50;93.00;;;;;;4745653;30;20074;-78
2021/04/08 12:15:46;;;;;;;5.30;3.53;;;6.60;91.90;;;;;;4760644;30;20052;-79
2021/04/08 12:18:20;;;;;;;5.15;3.50;;;6.50;90.80;;;;;;4758845;30;20056;-78
2021/04/08 12:20:53;;;;;;;5.80;3.53;;;6.60;90.50;;;;;;4758781;30;20051;-78
2021/04/08 12:23:23;;;;;;;6.68;3.92;;;6.60;86.50;;;;;;4759164;30;20056;-79
2021/04/08 12:25:55;;;;;;;4.55;3.33;;;6.60;87.20;;;;;;4758692;30;20598;-79
2021/04/08 12:28:27;;;;;;;5.18;3.17;;;6.70;86.70;;;;;;4758716;30;20082;-78
2021/04/08 12:31:00;;;;;;;8.95;3.20;;;6.60;85.20;;;;;;4774812;30;20111;-78
2021/04/08 12:33:37;;;;;;;6.63;3.78;;;6.70;81.80;;;;;;4744955;30;20543;-78
2021/04/08 12:36:11;;;;;;;4.15;2.80;;;6.80;83.60;;;;;;4744781;30;20058;-78
2021/04/08 12:38:42;;;;;;;5.03;2.92;;;6.80;79.70;;;;;;4744649;30;20047;-78
2021/04/08 12:41:14;;;;;;;4.80;2.92;;;6.50;76.70;;;;;;4744523;30;20044;-78
2021/04/08 12:43:43;;;;;;;4.88;3.08;;;6.50;74.20;;;;;;4745370;30;20111;-79
2021/04/08 12:46:09;;;;;;;5.03;2.60;;;6.60;77.80;;;;;;4759289;30;20475;-77
2021/04/08 12:48:42;;;;;;;3.10;2.80;;;6.40;76.00;;;;;;4744856;30;20044;-79
2021/04/08 12:51:08;;;;;;;5.15;2.80;;;6.50;76.90;;;;;;4743484;30;20110;-78
2021/04/08 12:53:35;;;;;;;6.43;3.05;;;6.50;75.10;;;;;;4758707;30;20056;-78
2021/04/08 12:56:06;;;;;;;4.97;3.03;;;6.40;76.60;;;;;;4757389;30;20131;-78
2021/04/08 12:58:37;;;;;;;13.00;4.55;;;6.50;77.70;;;;;;4743371;30;20524;-80
2021/04/08 13:01:03;;;;;;;4.95;2.92;;;6.50;77.60;;;;;;4762666;30;20082;-80
2021/04/08 13:03:34;;;;;;;3.63;2.80;;;6.60;79.50;;;;;;4759070;30;20130;-78
2021/04/08 13:06:01;;;;;;;4.78;2.85;;;6.60;80.10;;;;;;4757394;30;20047;-78
2021/04/08 13:08:27;;;;;;;3.08;2.30;;;6.60;72.40;;;;;;4739627;30;20154;-76
2021/04/08 13:11:00;;;;;;;6.45;3.03;;;6.60;77.50;;;;;;4756412;30;20069;-79
2021/04/08 13:13:26;;;;;;;4.32;3.30;;;6.80;77.90;;;;;;4758889;30;20124;-78
2021/04/08 13:15:57;;;;;;;3.80;2.75;;;6.70;76.10;;;;;;4744296;30;20135;-79
2021/04/08 13:18:23;;;;;;;3.33;2.47;;;6.60;73.70;;;;;;4774192;30;20109;-81
2021/04/08 13:20:55;;;;;;;4.97;3.08;;;6.60;71.20;;;;;;4744100;30;20062;-78
2021/04/08 13:23:26;;;;;;;4.28;2.60;;;6.60;71.70;;;;;;4760340;30;20078;-80
2021/04/08 13:25:57;;;;;;;4.28;3.35;;;6.60;73.40;;;;;;4766716;30;20078;-79
2021/04/08 13:28:24;;;;;;;4.70;2.50;;;6.70;75.30;;;;;;4749889;30;20071;-78
2021/04/08 13:30:55;;;;;;;5.75;3.63;;;7.00;72.00;;;;;;4748877;30;20080;-79